createdAt,value
2022-11-27T00:01:33.659Z,-10878.88
2022-11-27T00:04:39.637Z,-10867.84
2022-11-27T00:07:46.135Z,-10866.84
2022-11-27T00:10:54.222Z,-10852.16
2022-11-27T00:14:00.996Z,-10846.72
2022-11-27T00:17:07.746Z,-10854.25
2022-11-27T00:20:14.976Z,-10861.66
2022-11-27T00:23:32.579Z,-10884.75
2022-11-27T00:26:40.693Z,-10865.31
2022-11-27T00:30:00.483Z,-10858.88
2022-11-27T00:33:06.760Z,-10867.28
2022-11-27T00:36:27.705Z,-10872.59
2022-11-27T00:39:34.189Z,-10875.81
2022-11-27T00:42:41.825Z,-10890.06
2022-11-27T00:45:50.742Z,-10892.72
2022-11-27T00:48:57.668Z,-10887.69
2022-11-27T00:52:03.808Z,-10898.19
2022-11-27T00:55:10.815Z,-10896.09
2022-11-27T00:58:18.306Z,-10893.72
2022-11-27T01:01:26.594Z,-10889.78
2022-11-27T01:04:32.828Z,-10871.59
2022-11-27T01:07:39.082Z,-10865.72
2022-11-27T01:10:54.585Z,-10877.19
2022-11-27T01:14:05.050Z,-10849.22
2022-11-27T01:17:11.334Z,-10845.31
2022-11-27T01:20:17.461Z,-10846.28
2022-11-27T01:23:24.156Z,-10855.09
2022-11-27T01:26:31.279Z,-10864.59
2022-11-27T01:29:39.113Z,-10842.94
2022-11-27T01:32:45.244Z,-10842.50
2022-11-27T01:35:56.685Z,-10871.59
2022-11-27T01:39:03.326Z,-10867.41
2022-11-27T01:42:11.920Z,-10874.69
2022-11-27T01:45:22.289Z,-10893.44
2022-11-27T01:48:29.012Z,-10892.47
2022-11-27T01:51:36.485Z,-10901.84
2022-11-27T01:54:47.994Z,-10896.22
2022-11-27T01:57:58.073Z,-10907.00
2022-11-27T02:01:06.612Z,-10899.31
2022-11-27T02:04:13.338Z,-10891.63
2022-11-27T02:07:19.393Z,-10884.91
2022-11-27T02:10:32.920Z,-10896.66
2022-11-27T02:13:58.929Z,-10892.72
2022-11-27T02:17:17.171Z,-10892.59
2022-11-27T02:20:48.690Z,-10891.75
2022-11-27T02:24:19.276Z,-10890.34
2022-11-27T02:28:03.872Z,-10884.19
2022-11-27T02:31:17.484Z,-10897.91
2022-11-27T02:34:28.122Z,-10899.03
2022-11-27T02:37:39.977Z,-10901.28
2022-11-27T02:40:53.079Z,-10909.13
2022-11-27T02:44:01.838Z,-10901.28
2022-11-27T02:47:11.297Z,-10879.88
2022-11-27T02:50:34.341Z,-10881.25
2022-11-27T02:53:45.939Z,-10885.31
2022-11-27T02:56:53.881Z,-10883.78
2022-11-27T03:00:02.071Z,-10879.44
2022-11-27T03:03:13.423Z,-10887.97
2022-11-27T03:06:22.257Z,-10882.53
2022-11-27T03:09:34.418Z,-10869.78
2022-11-27T03:12:40.834Z,-10881.69
2022-11-27T03:15:57.443Z,-10890.06
2022-11-27T03:19:13.780Z,-10897.91
2022-11-27T03:22:20.220Z,-10889.94
2022-11-27T03:25:26.782Z,-10900.00
2022-11-27T03:28:33.984Z,-10901.41
2022-11-27T03:31:40.355Z,-10890.34
2022-11-27T03:34:49.239Z,-10895.41
2022-11-27T03:37:56.964Z,-10902.13
2022-11-27T03:41:08.813Z,-10897.22
2022-11-27T03:44:23.859Z,-10908.97
2022-11-27T03:47:49.993Z,-10908.56
2022-11-27T03:51:07.302Z,-10917.38
2022-11-27T03:54:25.350Z,-10912.34
2022-11-27T03:57:36.039Z,-10913.59
2022-11-27T04:00:45.655Z,-10908.28
2022-11-27T04:03:52.148Z,-10907.56
2022-11-27T04:07:14.037Z,-10906.03
2022-11-27T04:10:20.705Z,-10906.59
2022-11-27T04:13:26.989Z,-10888.25
2022-11-27T04:16:33.139Z,-10887.28
2022-11-27T04:19:39.854Z,-10878.59
2022-11-27T04:22:47.373Z,-10877.75
2022-11-27T04:25:53.492Z,-10883.78
2022-11-27T04:28:59.756Z,-10902.94
2022-11-27T04:32:06.566Z,-10901.84
2022-11-27T04:35:12.932Z,-10905.63
2022-11-27T04:38:20.921Z,-10910.22
2022-11-27T04:41:28.408Z,-10907.16
2022-11-27T04:44:34.847Z,-10900.16
2022-11-27T04:47:41.548Z,-10900.16
2022-11-27T04:50:47.581Z,-10902.94
2022-11-27T04:53:55.262Z,-10900.28
2022-11-27T04:57:01.560Z,-10896.66
2022-11-27T05:00:09.051Z,-10904.78
2022-11-27T05:03:15.633Z,-10896.22
2022-11-27T05:06:22.939Z,-10894.97
2022-11-27T05:09:31.014Z,-10880.28
2022-11-27T05:12:51.542Z,-10880.56
2022-11-27T05:15:58.043Z,-10878.88
2022-11-27T05:19:04.446Z,-10881.69
2022-11-27T05:22:10.841Z,-10886.72
2022-11-27T05:25:18.677Z,-10877.47
2022-11-27T05:28:26.962Z,-10876.38
2022-11-27T05:31:33.544Z,-10879.72
2022-11-27T05:34:40.228Z,-10877.75
2022-11-27T05:37:46.577Z,-10882.53
2022-11-27T05:40:54.326Z,-10899.47
2022-11-27T05:44:00.465Z,-10896.66
2022-11-27T05:47:06.659Z,-10903.09
2022-11-27T05:50:13.032Z,-10901.41
2022-11-27T05:53:19.411Z,-10907.84
2022-11-27T05:56:27.034Z,-10898.47
2022-11-27T05:59:33.232Z,-10887.97
2022-11-27T06:02:39.512Z,-10883.34
2022-11-27T06:05:46.210Z,-10888.81
2022-11-27T06:08:52.450Z,-10890.91
2022-11-27T06:12:00.535Z,-10903.50
2022-11-27T06:15:07.201Z,-10909.94
2022-11-27T06:18:14.144Z,-10907.00
2022-11-27T06:21:21.321Z,-10910.22
2022-11-27T06:24:27.985Z,-10916.41
2022-11-27T06:27:36.245Z,-10922.28
2022-11-27T06:30:42.704Z,-10917.25
2022-11-27T06:33:49.750Z,-10911.78
2022-11-27T06:36:56.076Z,-10898.47
2022-11-27T06:40:02.347Z,-10911.06
2022-11-27T06:43:10.067Z,-10892.31
2022-11-27T06:46:19.128Z,-10899.59
2022-11-27T06:49:25.774Z,-10911.50
2022-11-27T06:52:45.778Z,-10923.53
2022-11-27T06:55:51.737Z,-10924.50
2022-11-27T06:59:01.215Z,-10917.78
2022-11-27T07:02:07.663Z,-10931.81
2022-11-27T07:05:14.009Z,-10925.63
2022-11-27T07:08:20.215Z,-10926.47
2022-11-27T07:11:28.624Z,-10947.63
2022-11-27T07:14:36.241Z,-10944.97
2022-11-27T07:17:42.835Z,-10956.72
2022-11-27T07:20:56.421Z,-10942.72
2022-11-27T07:24:03.183Z,-10957.56
2022-11-27T07:27:09.307Z,-10953.38
2022-11-27T07:30:17.469Z,-10960.66
2022-11-27T07:33:23.792Z,-10963.19
2022-11-27T07:36:31.995Z,-10964.44
2022-11-27T07:40:00.995Z,-10974.94
2022-11-27T07:43:04.463Z,-10975.66
2022-11-27T07:46:15.104Z,-10990.50
2022-11-27T07:49:21.812Z,-10975.50
2022-11-27T07:52:28.691Z,-10980.84
2022-11-27T07:55:34.865Z,-10980.84
2022-11-27T07:58:41.266Z,-10993.72
2022-11-27T08:01:49.384Z,-10987.16
2022-11-27T08:05:12.713Z,-10998.22
2022-11-27T08:08:19.809Z,-11004.38
2022-11-27T08:11:29.784Z,-11002.16
2022-11-27T08:14:36.328Z,-11005.78
2022-11-27T08:17:44.264Z,-11007.19
2022-11-27T08:20:50.800Z,-11018.13
2022-11-27T08:23:58.276Z,-11013.22
2022-11-27T08:27:04.981Z,-11018.41
2022-11-27T08:30:11.684Z,-11030.19
2022-11-27T08:33:30.086Z,-11038.34
2022-11-27T08:36:50.063Z,-11048.44
2022-11-27T08:39:56.092Z,-11041.56
2022-11-27T08:43:02.611Z,-11029.91
2022-11-27T08:46:09.628Z,-11054.19
2022-11-27T08:49:17.315Z,-11057.84
2022-11-27T08:52:23.376Z,-11054.03
2022-11-27T08:55:29.844Z,-11055.16
2022-11-27T08:58:36.327Z,-11060.78
2022-11-27T09:01:42.506Z,-11066.94
2022-11-27T09:04:50.100Z,-11062.47
2022-11-27T09:07:56.930Z,-11069.47
2022-11-27T09:11:04.385Z,-11063.44
2022-11-27T09:14:10.797Z,-11082.13
2022-11-27T09:17:17.269Z,-11072.28
2022-11-27T09:20:24.932Z,-11076.63
2022-11-27T09:23:31.525Z,-11091.38
2022-11-27T09:26:38.058Z,-11087.72
2022-11-27T09:29:44.385Z,-11097.84
2022-11-27T09:32:50.725Z,-11099.25
2022-11-27T09:35:58.610Z,-11088.84
2022-11-27T09:39:05.320Z,-11111.31
2022-11-27T09:42:34.545Z,-11102.47
2022-11-27T09:45:46.118Z,-11106.56
2022-11-27T09:48:54.688Z,-11121.44
2022-11-27T09:52:08.190Z,-11117.78
2022-11-27T09:55:19.288Z,-11106.56
2022-11-27T09:58:39.001Z,-11124.09
2022-11-27T10:01:50.676Z,-11128.19
2022-11-27T10:05:13.336Z,-11126.78
2022-11-27T10:08:31.392Z,-11111.03
2022-11-27T10:11:49.004Z,-11124.66
2022-11-27T10:15:06.442Z,-11121.16
2022-11-27T10:18:22.364Z,-11113.28
2022-11-27T10:21:51.671Z,-11124.81
2022-11-27T10:25:08.597Z,-11121.72
2022-11-27T10:28:27.777Z,-11124.09
2022-11-27T10:31:38.427Z,-11120.59
2022-11-27T10:34:48.574Z,-11131.81
2022-11-27T10:38:01.049Z,-11133.50
2022-11-27T10:41:47.564Z,-11134.50
2022-11-27T10:44:50.180Z,-11139.56
2022-11-27T10:47:56.605Z,-11134.06
2022-11-27T10:51:02.929Z,-11126.06
2022-11-27T10:54:21.649Z,-11151.22
2022-11-27T10:57:47.745Z,-11148.53
2022-11-27T11:01:02.239Z,-11137.44
2022-11-27T11:04:35.960Z,-11144.06
2022-11-27T11:07:50.299Z,-11140.53
2022-11-27T11:11:00.344Z,-11140.53
2022-11-27T11:14:17.290Z,-11145.59
2022-11-27T11:17:27.989Z,-11143.34
2022-11-27T11:20:34.805Z,-11147.56
2022-11-27T11:23:42.542Z,-11144.91
2022-11-27T11:26:51.123Z,-11143.78
2022-11-27T11:30:01.830Z,-11156.28
2022-11-27T11:33:12.899Z,-11154.59
2022-11-27T11:36:19.636Z,-11140.25
2022-11-27T11:39:29.012Z,-11155.72
2022-11-27T11:42:38.377Z,-11148.69
2022-11-27T11:45:49.058Z,-11143.06
2022-11-27T11:49:01.447Z,-11148.13
2022-11-27T11:52:25.312Z,-11138.00
2022-11-27T11:55:40.530Z,-11145.03
2022-11-27T11:58:57.343Z,-11149.53
2022-11-27T12:02:26.636Z,-11142.38
2022-11-27T12:05:41.724Z,-11157.25
2022-11-27T12:09:08.809Z,-11158.66
2022-11-27T12:12:28.400Z,-11151.22
2022-11-27T12:15:39.668Z,-11151.22
2022-11-27T12:19:04.001Z,-11156.28
2022-11-27T12:22:23.569Z,-11150.50
2022-11-27T12:25:34.619Z,-11146.84
2022-11-27T12:28:59.783Z,-11136.47
2022-11-27T12:32:33.036Z,-11155.72
2022-11-27T12:35:46.075Z,-11158.81
2022-11-27T12:39:12.067Z,-11139.41
2022-11-27T12:42:25.192Z,-11145.88
2022-11-27T12:45:36.442Z,-11156.84
2022-11-27T12:48:47.598Z,-11152.91
2022-11-27T12:52:00.666Z,-11146.00
2022-11-27T12:55:12.551Z,-11144.75
2022-11-27T12:58:27.136Z,-11154.72
2022-11-27T13:01:40.824Z,-11140.13
2022-11-27T13:04:53.068Z,-11135.06
2022-11-27T13:08:03.636Z,-11132.25
2022-11-27T13:11:13.889Z,-11135.47
2022-11-27T13:14:24.126Z,-11129.88
2022-11-27T13:17:36.739Z,-11129.03
2022-11-27T13:20:45.526Z,-11127.06
2022-11-27T13:23:56.038Z,-11120.59
2022-11-27T13:27:07.745Z,-11122.56
2022-11-27T13:30:22.065Z,-11125.09
2022-11-27T13:33:37.017Z,-11116.38
2022-11-27T13:36:46.057Z,-11118.91
2022-11-27T13:40:01.434Z,-11113.56
2022-11-27T13:43:20.502Z,-11107.97
2022-11-27T13:46:29.402Z,-11110.63
2022-11-27T13:49:38.036Z,-11099.66
2022-11-27T13:52:57.400Z,-11097.28
2022-11-27T13:56:06.596Z,-11092.94
2022-11-27T13:59:17.806Z,-11093.34
2022-11-27T14:02:24.182Z,-11094.75
2022-11-27T14:05:41.390Z,-11089.84
2022-11-27T14:08:57.248Z,-11089.28
2022-11-27T14:12:18.049Z,-11090.81
2022-11-27T14:15:40.332Z,-11089.41
2022-11-27T14:18:52.304Z,-11086.59
2022-11-27T14:21:58.368Z,-11084.63
2022-11-27T14:25:21.381Z,-11086.03
2022-11-27T14:28:31.388Z,-11081.56
2022-11-27T14:31:37.693Z,-11081.28
2022-11-27T14:34:44.301Z,-11080.44
2022-11-27T14:37:50.709Z,-11082.13
2022-11-27T14:41:09.678Z,-11081.69
2022-11-27T14:44:30.893Z,-11079.59
2022-11-27T14:47:39.844Z,-11079.03
2022-11-27T14:51:00.205Z,-11079.88
2022-11-27T14:54:12.204Z,-11077.06
2022-11-27T14:57:24.977Z,-11075.09
2022-11-27T15:00:32.940Z,-11072.72
2022-11-27T15:03:39.257Z,-11071.16
2022-11-27T15:06:47.472Z,-11072.72
2022-11-27T15:09:56.273Z,-11068.06
2022-11-27T15:13:04.951Z,-11071.44
2022-11-27T15:16:17.771Z,-11071.16
2022-11-27T15:19:30.762Z,-11073.41
2022-11-27T15:22:38.487Z,-11069.75
2022-11-27T15:25:47.111Z,-11065.28
2022-11-27T15:28:54.906Z,-11067.78
2022-11-27T15:32:21.870Z,-11065.84
2022-11-27T15:35:46.982Z,-11061.91
2022-11-27T15:39:06.981Z,-11065.28
2022-11-27T15:42:14.714Z,-11068.50
2022-11-27T15:45:21.100Z,-11063.03
2022-11-27T15:48:28.931Z,-11058.81
2022-11-27T15:51:35.074Z,-11055.72
2022-11-27T15:54:41.436Z,-11057.69
2022-11-27T15:57:47.853Z,-11055.16
2022-11-27T16:00:54.470Z,-11055.03
2022-11-27T16:04:02.256Z,-11059.09
2022-11-27T16:07:08.561Z,-11063.16
2022-11-27T16:10:14.857Z,-11050.97
2022-11-27T16:13:20.867Z,-11052.63
2022-11-27T16:16:27.744Z,-11052.50
2022-11-27T16:19:35.517Z,-11052.91
2022-11-27T16:22:41.460Z,-11056.72
2022-11-27T16:25:47.828Z,-11049.28
2022-11-27T16:28:54.098Z,-11052.50
2022-11-27T16:32:01.402Z,-11053.47
2022-11-27T16:35:09.972Z,-11049.97
2022-11-27T16:38:16.299Z,-11054.31
2022-11-27T16:41:24.136Z,-11050.13
2022-11-27T16:44:30.282Z,-11050.13
2022-11-27T16:47:36.470Z,-11051.09
2022-11-27T16:50:46.806Z,-11045.50
2022-11-27T16:53:54.800Z,-11045.22
2022-11-27T16:57:01.151Z,-11042.69
2022-11-27T17:00:09.044Z,-11041.69
2022-11-27T17:03:15.041Z,-11049.41
2022-11-27T17:06:24.405Z,-11044.78
2022-11-27T17:09:31.573Z,-11038.06
2022-11-27T17:12:38.353Z,-11041.69
2022-11-27T17:15:58.928Z,-11039.03
2022-11-27T17:19:05.831Z,-11035.09
2022-11-27T17:22:13.511Z,-11038.88
2022-11-27T17:25:19.933Z,-11041.69
2022-11-27T17:28:26.137Z,-11035.94
2022-11-27T17:31:35.586Z,-11039.16
2022-11-27T17:34:42.290Z,-11030.75
2022-11-27T17:37:50.221Z,-11030.19
2022-11-27T17:41:01.578Z,-11036.78
2022-11-27T17:44:08.767Z,-11037.22
2022-11-27T17:47:15.113Z,-11039.16
2022-11-27T17:50:21.534Z,-11036.50
2022-11-27T17:53:29.935Z,-11035.38
2022-11-27T17:56:36.447Z,-11026.00
2022-11-27T17:59:43.057Z,-11025.16
2022-11-27T18:02:49.592Z,-11030.47
2022-11-27T18:05:56.879Z,-11032.00
2022-11-27T18:09:05.068Z,-11030.47
2022-11-27T18:12:11.638Z,-11027.53
2022-11-27T18:15:29.214Z,-11033.56
2022-11-27T18:18:49.213Z,-11028.78
2022-11-27T18:21:55.499Z,-11030.34
2022-11-27T18:25:03.123Z,-11037.78
2022-11-27T18:28:09.278Z,-11039.72
2022-11-27T18:31:17.164Z,-11040.00
2022-11-27T18:34:23.443Z,-11035.94
2022-11-27T18:37:30.074Z,-11030.75
2022-11-27T18:40:41.469Z,-11030.19
2022-11-27T18:43:49.456Z,-11043.25
2022-11-27T18:46:55.791Z,-11040.28
2022-11-27T18:50:03.747Z,-11037.78
2022-11-27T18:53:10.349Z,-11037.78
2022-11-27T18:56:21.059Z,-11030.75
2022-11-27T18:59:27.658Z,-11035.38
2022-11-27T19:02:33.792Z,-11034.41
2022-11-27T19:05:50.389Z,-11038.88
2022-11-27T19:08:57.729Z,-11039.31
2022-11-27T19:12:06.201Z,-11034.69
2022-11-27T19:15:12.806Z,-11039.44
2022-11-27T19:18:19.493Z,-11041.56
2022-11-27T19:21:29.289Z,-11033.28
2022-11-27T19:24:35.908Z,-11037.22
2022-11-27T19:27:43.570Z,-11036.94
2022-11-27T19:30:50.229Z,-11039.59
2022-11-27T19:33:58.896Z,-11034.69
2022-11-27T19:37:33.572Z,-11037.22
2022-11-27T19:40:41.632Z,-11028.38
2022-11-27T19:43:49.236Z,-11030.06
2022-11-27T19:46:55.378Z,-11028.66
2022-11-27T19:50:01.442Z,-11032.00
2022-11-27T19:53:07.726Z,-11024.31
2022-11-27T19:56:27.857Z,-11026.00
2022-11-27T19:59:35.730Z,-11022.47
2022-11-27T20:02:42.572Z,-11021.06
2022-11-27T20:05:48.986Z,-11022.62
2022-11-27T20:09:01.074Z,-11020.94
2022-11-27T20:12:07.573Z,-11020.66
2022-11-27T20:15:16.956Z,-11015.88
2022-11-27T20:18:23.365Z,-11012.38
2022-11-27T20:21:29.601Z,-11020.38
2022-11-27T20:24:44.123Z,-11020.66
2022-11-27T20:28:02.126Z,-11022.06
2022-11-27T20:31:15.098Z,-11023.75
2022-11-27T20:34:37.096Z,-11021.91
2022-11-27T20:37:43.634Z,-11021.34
2022-11-27T20:40:50.354Z,-11023.59
2022-11-27T20:43:57.914Z,-11017.28
2022-11-27T20:47:05.673Z,-11014.34
2022-11-27T20:50:13.063Z,-11009.16
2022-11-27T20:53:19.827Z,-11007.75
2022-11-27T20:56:26.857Z,-11009.44
2022-11-27T20:59:32.966Z,-11010.41
2022-11-27T21:02:41.897Z,-11015.75
2022-11-27T21:05:48.339Z,-11012.09
2022-11-27T21:08:55.290Z,-11014.47
2022-11-27T21:12:02.148Z,-11011.69
2022-11-27T21:15:09.640Z,-11013.38
2022-11-27T21:18:17.496Z,-11010.13
2022-11-27T21:21:23.964Z,-11013.09
2022-11-27T21:24:30.396Z,-11002.56
2022-11-27T21:27:37.482Z,-11004.09
2022-11-27T21:30:43.687Z,-11007.06
2022-11-27T21:33:53.136Z,-11004.94
2022-11-27T21:36:59.351Z,-11004.66
2022-11-27T21:40:08.335Z,-11006.91
2022-11-27T21:43:14.642Z,-11001.03
2022-11-27T21:46:22.657Z,-10999.34
2022-11-27T21:49:30.457Z,-10999.19
2022-11-27T21:52:36.861Z,-10996.53
2022-11-27T21:55:43.797Z,-10998.22
2022-11-27T21:58:50.858Z,-10996.13
2022-11-27T22:01:58.268Z,-11003.13
2022-11-27T22:05:07.220Z,-11001.16
2022-11-27T22:08:13.865Z,-11002.97
2022-11-27T22:11:23.992Z,-10998.78
2022-11-27T22:14:30.116Z,-10999.91
2022-11-27T22:17:36.337Z,-10994.16
2022-11-27T22:20:44.328Z,-10989.66
2022-11-27T22:23:50.786Z,-10988.41
2022-11-27T22:26:57.062Z,-10984.75
2022-11-27T22:30:03.577Z,-10997.38
2022-11-27T22:33:09.789Z,-11000.03
2022-11-27T22:36:20.398Z,-10993.19
2022-11-27T22:39:26.480Z,-10987.28
2022-11-27T22:42:32.797Z,-10998.50
2022-11-27T22:45:41.716Z,-10995.97
2022-11-27T22:48:48.068Z,-10992.34
2022-11-27T22:51:55.709Z,-10990.94
2022-11-27T22:55:02.239Z,-10984.75
2022-11-27T22:58:09.463Z,-10994.56
2022-11-27T23:01:17.707Z,-10986.44
2022-11-27T23:04:23.939Z,-10986.72
2022-11-27T23:07:32.073Z,-10992.63
2022-11-27T23:10:40.257Z,-10994.84
2022-11-27T23:14:00.348Z,-10987.28
2022-11-27T23:17:06.664Z,-10983.78
2022-11-27T23:20:13.809Z,-10989.81
2022-11-27T23:23:21.448Z,-10987.28
2022-11-27T23:26:27.904Z,-10995.84
2022-11-27T23:29:33.992Z,-11001.44
2022-11-27T23:32:40.442Z,-10997.81
2022-11-27T23:35:46.780Z,-10989.81
2022-11-27T23:38:54.509Z,-10980.00
2022-11-27T23:42:14.327Z,-10982.78
2022-11-27T23:45:20.621Z,-10995.00
2022-11-27T23:48:26.973Z,-10993.44
2022-11-27T23:51:34.584Z,-10986.72
2022-11-27T23:54:42.412Z,-10994.16
2022-11-27T23:57:49.103Z,-10995.00
